createdAt,value
2022-08-11T00:03:44.049Z,14.58
2022-08-11T00:08:50.133Z,14.40
2022-08-11T00:13:53.519Z,14.30
2022-08-11T00:19:00.183Z,14.22
2022-08-11T00:24:03.345Z,14.30
2022-08-11T00:29:10.253Z,14.43
2022-08-11T00:34:13.137Z,14.39
2022-08-11T00:39:17.942Z,14.08
2022-08-11T00:44:42.326Z,13.78
2022-08-11T00:50:10.105Z,13.51
2022-08-11T00:55:42.888Z,13.33
2022-08-11T01:01:23.460Z,13.28
2022-08-11T01:06:49.181Z,13.22
2022-08-11T01:12:18.814Z,12.96
2022-08-11T01:17:26.753Z,12.81
2022-08-11T01:23:18.027Z,12.67
2022-08-11T01:29:04.390Z,12.55
2022-08-11T01:34:48.270Z,12.50
2022-08-11T01:40:22.919Z,12.52
2022-08-11T01:45:42.955Z,12.50
2022-08-11T01:51:22.358Z,12.44
2022-08-11T01:56:36.472Z,12.28
2022-08-11T02:01:57.917Z,12.06
2022-08-11T02:07:38.431Z,12.00
2022-08-11T02:12:52.574Z,11.98
2022-08-11T02:18:48.874Z,12.02
2022-08-11T02:24:04.953Z,12.01
2022-08-11T02:29:21.573Z,11.98
2022-08-11T02:35:00.286Z,11.91
2022-08-11T02:40:21.364Z,11.75
2022-08-11T02:45:54.309Z,11.55
2022-08-11T02:51:21.150Z,11.42
2022-08-11T02:56:49.856Z,11.27
2022-08-11T03:02:00.805Z,11.22
2022-08-11T03:07:29.166Z,11.11
2022-08-11T03:13:15.670Z,11.05
2022-08-11T03:18:36.748Z,10.91
2022-08-11T03:24:21.343Z,10.96
2022-08-11T03:29:33.627Z,11.02
2022-08-11T03:34:38.949Z,11.04
2022-08-11T03:39:58.117Z,11.02
2022-08-11T03:45:12.330Z,11.09
2022-08-11T03:50:38.971Z,11.17
2022-08-11T03:56:05.624Z,11.30
2022-08-11T04:01:38.784Z,11.45
2022-08-11T04:07:02.173Z,11.50
2022-08-11T04:12:36.578Z,11.45
2022-08-11T04:18:16.944Z,11.59
2022-08-11T04:24:35.916Z,12.77
2022-08-11T04:30:02.027Z,14.98
2022-08-11T04:35:32.821Z,16.67
2022-08-11T04:40:43.446Z,17.77
2022-08-11T04:46:00.713Z,18.68
2022-08-11T04:52:00.101Z,19.02
2022-08-11T04:57:33.630Z,19.20
2022-08-11T05:03:27.621Z,19.54
2022-08-11T05:08:47.603Z,19.53
2022-08-11T05:14:11.068Z,18.95
2022-08-11T05:19:39.434Z,18.22
2022-08-11T05:25:07.596Z,17.85
2022-08-11T05:30:30.691Z,17.47
2022-08-11T05:36:02.227Z,17.24
2022-08-11T05:41:25.680Z,17.10
2022-08-11T05:46:47.796Z,17.22
2022-08-11T05:52:12.968Z,17.44
2022-08-11T05:57:38.600Z,17.84
2022-08-11T06:02:55.692Z,18.30
2022-08-11T06:08:05.222Z,18.57
2022-08-11T06:13:08.579Z,18.63
2022-08-11T06:18:13.123Z,18.95
2022-08-11T06:23:20.062Z,19.39
2022-08-11T06:28:31.272Z,19.77
2022-08-11T06:33:43.549Z,20.19
2022-08-11T06:39:21.147Z,20.47
2022-08-11T06:44:29.442Z,20.84
2022-08-11T06:50:02.735Z,21.16
2022-08-11T06:55:55.718Z,21.41
2022-08-11T07:00:41.237Z,21.66
2022-08-11T07:06:20.833Z,21.70
2022-08-11T07:12:32.951Z,21.97
2022-08-11T07:17:50.540Z,22.25
2022-08-11T07:23:17.875Z,22.35
2022-08-11T07:28:44.587Z,22.56
2022-08-11T07:34:07.442Z,22.74
2022-08-11T07:39:20.521Z,22.95
2022-08-11T07:44:27.375Z,23.12
2022-08-11T07:49:54.421Z,23.20
2022-08-11T07:55:03.654Z,23.37
2022-08-11T08:00:30.023Z,23.34
2022-08-11T08:05:51.051Z,23.38
2022-08-11T08:11:13.377Z,23.52
2022-08-11T08:16:34.587Z,23.46
2022-08-11T08:21:38.879Z,23.62
2022-08-11T08:26:58.562Z,23.60
2022-08-11T08:32:02.341Z,23.78
2022-08-11T08:37:44.913Z,24.02
2022-08-11T08:42:33.046Z,24.23
2022-08-11T08:47:43.538Z,24.33
2022-08-11T08:53:10.386Z,24.62
2022-08-11T08:58:21.782Z,24.81
2022-08-11T09:03:41.806Z,24.84
2022-08-11T09:08:46.980Z,24.90
2022-08-11T09:14:05.701Z,24.98
2022-08-11T09:19:10.156Z,25.36
2022-08-11T09:24:30.674Z,25.43
2022-08-11T09:29:39.073Z,25.45
2022-08-11T09:34:49.214Z,25.46
2022-08-11T09:40:15.484Z,25.69
2022-08-11T09:45:17.869Z,25.78
2022-08-11T09:50:20.828Z,26.05
2022-08-11T09:55:25.593Z,26.12
2022-08-11T10:00:30.819Z,26.29
2022-08-11T10:05:52.127Z,26.03
2022-08-11T10:10:56.270Z,25.72
2022-08-11T10:16:15.690Z,25.63
2022-08-11T10:21:38.980Z,25.88
2022-08-11T10:26:55.196Z,26.11
2022-08-11T10:32:19.653Z,25.76
2022-08-11T10:38:09.113Z,25.43
2022-08-11T10:43:02.968Z,25.80
2022-08-11T10:48:15.390Z,26.13
2022-08-11T10:53:40.384Z,26.16
2022-08-11T10:58:49.178Z,26.53
2022-08-11T11:03:58.609Z,26.54
2022-08-11T11:09:05.261Z,26.34
2022-08-11T11:14:27.259Z,26.69
2022-08-11T11:19:29.747Z,26.89
2022-08-11T11:24:41.664Z,27.21
2022-08-11T11:29:49.488Z,27.31
2022-08-11T11:35:14.964Z,27.29
2022-08-11T11:40:21.026Z,27.23
2022-08-11T11:50:52.897Z,27.28
2022-08-11T11:56:39.612Z,27.27
2022-08-11T12:02:12.406Z,27.21
2022-08-11T12:07:56.724Z,26.61
2022-08-11T12:13:38.302Z,26.98
2022-08-11T12:18:50.071Z,27.29
2022-08-11T12:24:17.554Z,27.66
2022-08-11T12:29:40.010Z,27.87
2022-08-11T12:34:46.555Z,27.73
2022-08-11T12:40:42.450Z,26.73
2022-08-11T12:45:41.826Z,26.08
2022-08-11T12:51:23.185Z,26.38
2022-08-11T12:56:56.424Z,26.80
2022-08-11T13:02:20.897Z,26.90
2022-08-11T13:07:23.893Z,27.15
2022-08-11T13:12:47.052Z,27.38
2022-08-11T13:17:51.445Z,27.30
2022-08-11T13:22:56.754Z,27.31
2022-08-11T13:28:02.109Z,27.45
2022-08-11T13:33:11.268Z,27.65
2022-08-11T13:38:20.467Z,27.90
2022-08-11T13:43:30.426Z,28.01
2022-08-11T13:48:46.542Z,27.59
2022-08-11T13:53:52.843Z,26.88
2022-08-11T13:59:04.145Z,26.30
2022-08-11T14:04:30.947Z,26.56
2022-08-11T14:09:41.067Z,26.83
2022-08-11T14:14:49.415Z,26.95
2022-08-11T14:19:59.691Z,27.12
2022-08-11T14:25:02.673Z,27.34
2022-08-11T14:30:31.563Z,27.51
2022-08-11T14:35:45.587Z,27.49
2022-08-11T14:41:12.973Z,26.79
2022-08-11T14:46:47.241Z,26.14
2022-08-11T14:51:54.654Z,26.22
2022-08-11T14:56:59.827Z,26.45
2022-08-11T15:02:22.309Z,26.68
2022-08-11T15:07:29.933Z,26.89
2022-08-11T15:12:37.338Z,27.01
2022-08-11T15:17:43.417Z,27.01
2022-08-11T15:23:07.913Z,27.05
2022-08-11T15:28:29.033Z,27.07
2022-08-11T15:33:54.389Z,26.99
2022-08-11T15:39:19.549Z,26.70
2022-08-11T15:45:06.004Z,26.63
2022-08-11T15:50:16.007Z,26.62
2022-08-11T15:55:19.717Z,26.60
2022-08-11T16:00:43.630Z,26.54
2022-08-11T16:05:53.158Z,26.43
2022-08-11T16:11:09.697Z,26.40
2022-08-11T16:16:16.470Z,26.42
2022-08-11T16:21:33.799Z,26.36
2022-08-11T16:27:10.385Z,26.19
2022-08-11T16:32:24.479Z,26.06
2022-08-11T16:37:57.813Z,26.07
2022-08-11T16:43:25.214Z,26.04
2022-08-11T16:48:38.240Z,26.03
2022-08-11T16:54:04.121Z,26.16
2022-08-11T16:59:17.904Z,27.23
2022-08-11T17:04:43.287Z,27.87
2022-08-11T17:10:39.370Z,28.03
2022-08-11T17:15:50.848Z,27.27
2022-08-11T17:20:56.201Z,26.64
2022-08-11T17:26:03.209Z,26.18
2022-08-11T17:31:27.607Z,25.81
2022-08-11T17:36:29.745Z,25.50
2022-08-11T17:41:50.432Z,25.03
2022-08-11T17:47:12.042Z,24.54
2022-08-11T17:52:35.525Z,23.87
2022-08-11T17:57:57.372Z,23.01
2022-08-11T18:03:18.124Z,22.42
2022-08-11T18:08:39.325Z,22.03
2022-08-11T18:14:03.053Z,21.77
2022-08-11T18:19:27.934Z,21.52
2022-08-11T18:24:56.030Z,21.29
2022-08-11T18:30:19.601Z,21.11
2022-08-11T18:35:42.018Z,20.95
2022-08-11T18:41:03.241Z,20.82
2022-08-11T18:46:26.117Z,20.74
2022-08-11T18:51:46.873Z,20.64
2022-08-11T18:57:11.509Z,20.53
2022-08-11T19:02:48.510Z,20.46
2022-08-11T19:08:14.271Z,20.36
2022-08-11T19:13:43.309Z,20.23
2022-08-11T19:19:05.629Z,20.17
2022-08-11T19:24:27.078Z,20.12
2022-08-11T19:30:07.472Z,20.07
2022-08-11T19:35:30.366Z,19.94
2022-08-11T19:40:51.988Z,19.75
2022-08-11T19:46:16.899Z,19.55
2022-08-11T19:51:38.625Z,19.34
2022-08-11T19:57:00.654Z,19.07
2022-08-11T20:02:21.735Z,18.78
2022-08-11T20:07:43.421Z,18.55
2022-08-11T20:13:04.613Z,18.40
2022-08-11T20:18:25.246Z,18.24
2022-08-11T20:23:49.630Z,18.05
2022-08-11T20:29:12.519Z,17.91
2022-08-11T20:34:42.277Z,17.72
2022-08-11T20:40:08.328Z,17.51
2022-08-11T20:45:33.612Z,17.27
2022-08-11T20:50:57.909Z,17.07
2022-08-11T20:56:19.501Z,16.95
2022-08-11T21:01:41.448Z,16.92
2022-08-11T21:07:05.701Z,16.77
2022-08-11T21:18:00.832Z,16.26
2022-08-11T21:23:31.100Z,15.87
2022-08-11T21:28:57.916Z,15.56
2022-08-11T21:34:19.717Z,15.24
2022-08-11T21:39:40.990Z,15.08
2022-08-11T21:45:02.927Z,14.83
2022-08-11T21:50:25.178Z,14.56
2022-08-11T21:55:49.981Z,14.43
2022-08-11T22:01:12.580Z,14.37
2022-08-11T22:06:36.592Z,14.40
2022-08-11T22:12:33.709Z,14.64
2022-08-11T22:17:38.650Z,14.58
2022-08-11T22:23:01.503Z,14.20
2022-08-11T22:28:24.423Z,14.04
2022-08-11T22:33:51.731Z,14.04
2022-08-11T22:39:28.092Z,13.88
2022-08-11T22:44:52.319Z,13.80
2022-08-11T22:50:20.870Z,13.76
2022-08-11T22:55:46.301Z,13.72
2022-08-11T23:01:09.888Z,13.67
2022-08-11T23:06:34.067Z,13.56
2022-08-11T23:12:07.229Z,13.39
2022-08-11T23:17:33.307Z,13.24
2022-08-11T23:22:56.650Z,13.27
2022-08-11T23:28:20.616Z,13.44
2022-08-11T23:33:45.729Z,13.51
2022-08-11T23:39:06.287Z,13.43
2022-08-11T23:44:27.597Z,13.46
2022-08-11T23:49:48.778Z,13.39
2022-08-11T23:55:11.628Z,13.35
